createdAt,value
2024-01-17T16:17:47.372Z,20.85
2024-01-17T16:20:24.630Z,17.05
2024-01-17T16:23:02.478Z,4.72
2024-01-17T16:25:36.258Z,3.38
2024-01-17T16:28:10.169Z,2.53
2024-01-17T16:30:49.727Z,6.63
2024-01-17T16:33:24.181Z,7.05
2024-01-17T16:35:58.057Z,4.30
2024-01-17T16:38:31.834Z,8.43
2024-01-17T16:41:06.296Z,4.28
2024-01-17T16:43:40.244Z,2.55
2024-01-17T16:46:15.635Z,4.00
2024-01-17T16:48:49.404Z,2.60
2024-01-17T16:51:23.335Z,5.72
2024-01-17T16:53:57.806Z,3.83
2024-01-17T16:56:32.496Z,2.95
2024-01-17T16:59:06.330Z,3.38
2024-01-17T17:01:41.438Z,5.43
2024-01-17T17:04:15.337Z,3.63
2024-01-17T17:06:49.223Z,3.63
2024-01-17T17:09:23.027Z,3.03
2024-01-17T17:11:56.789Z,3.17
2024-01-17T17:14:30.955Z,2.88
2024-01-17T17:17:06.833Z,2.03
2024-01-17T17:19:41.491Z,1.60
2024-01-17T17:22:15.348Z,2.03
2024-01-17T17:24:49.042Z,1.40
2024-01-17T17:27:22.806Z,1.60
2024-01-17T17:29:57.538Z,1.70
2024-01-17T17:32:32.936Z,3.75
2024-01-17T17:35:07.140Z,2.60
2024-01-17T17:37:40.786Z,2.42
2024-01-17T17:40:16.152Z,3.30
2024-01-17T17:42:49.950Z,1.52
2024-01-17T17:45:23.853Z,1.40
2024-01-17T17:48:02.098Z,1.58
2024-01-17T17:50:36.330Z,2.33
2024-01-17T17:53:10.051Z,2.17
2024-01-17T17:55:46.077Z,1.95
2024-01-17T17:58:20.212Z,2.92
2024-01-17T18:00:53.911Z,2.97
2024-01-17T18:03:29.358Z,2.60
2024-01-17T18:06:04.452Z,3.65
2024-01-17T18:08:38.374Z,4.72
2024-01-17T18:11:13.813Z,2.92
2024-01-17T18:13:47.825Z,2.50
2024-01-17T18:16:24.795Z,4.03
2024-01-17T18:19:00.089Z,3.97
2024-01-17T18:21:38.306Z,2.35
2024-01-17T18:24:12.067Z,2.78
2024-01-17T18:26:45.985Z,2.38
2024-01-17T18:29:19.746Z,3.00
2024-01-17T18:31:53.611Z,3.03
2024-01-17T18:34:29.450Z,2.58
2024-01-17T18:37:05.384Z,2.25
2024-01-17T18:39:39.147Z,2.85
2024-01-17T18:42:13.446Z,2.67
2024-01-17T18:44:48.052Z,3.00
2024-01-17T18:47:21.877Z,3.03
2024-01-17T18:49:57.038Z,2.78
2024-01-17T18:52:30.934Z,1.70
2024-01-17T18:55:05.225Z,3.30
2024-01-17T18:57:39.162Z,1.88
2024-01-17T19:00:14.495Z,3.00
2024-01-17T19:02:48.833Z,2.25
2024-01-17T19:05:24.333Z,2.10
2024-01-17T19:07:58.252Z,2.50
2024-01-17T19:10:31.939Z,2.45
2024-01-17T19:13:05.936Z,2.03
2024-01-17T19:15:39.965Z,1.48
2024-01-17T19:18:16.626Z,1.73
2024-01-17T19:20:53.916Z,2.67
2024-01-17T19:23:28.164Z,1.25
2024-01-17T19:26:02.250Z,1.80
2024-01-17T19:28:36.232Z,2.22
2024-01-17T19:31:10.179Z,2.30
2024-01-17T19:33:44.918Z,1.83
2024-01-17T19:36:20.652Z,2.67
2024-01-17T19:38:54.769Z,2.13
2024-01-17T19:41:28.975Z,2.15
2024-01-17T19:44:03.180Z,1.58
2024-01-17T19:46:37.591Z,2.80
2024-01-17T19:49:11.876Z,1.77
2024-01-17T19:51:47.270Z,1.02
2024-01-17T19:54:21.184Z,1.92
2024-01-17T19:56:56.294Z,1.65
2024-01-17T19:59:30.194Z,2.17
2024-01-17T20:02:04.057Z,2.10
2024-01-17T20:04:38.063Z,3.28
2024-01-17T20:07:13.543Z,1.50
2024-01-17T20:09:47.452Z,1.98
2024-01-17T20:12:21.349Z,2.08
2024-01-17T20:14:56.460Z,1.23
2024-01-17T20:17:30.316Z,1.88
2024-01-17T20:20:06.753Z,3.28
2024-01-17T20:22:42.077Z,1.50
2024-01-17T20:25:16.117Z,1.90
2024-01-17T20:27:49.922Z,1.40
2024-01-17T20:30:23.998Z,1.00
2024-01-17T20:32:58.647Z,1.70
2024-01-17T20:35:32.616Z,1.70
2024-01-17T20:38:08.066Z,1.63
2024-01-17T20:40:42.116Z,1.70
2024-01-17T20:43:15.923Z,1.60
2024-01-17T20:45:49.961Z,1.30
2024-01-17T20:48:28.216Z,1.50
2024-01-17T20:51:02.355Z,1.60
2024-01-17T20:53:39.081Z,1.38
2024-01-17T20:56:14.044Z,1.55
2024-01-17T20:58:48.989Z,1.80
2024-01-17T21:01:23.171Z,2.20
2024-01-17T21:03:57.308Z,2.20
2024-01-17T21:06:31.424Z,2.15
2024-01-17T21:09:07.148Z,1.45
2024-01-17T21:11:41.041Z,1.67
2024-01-17T21:14:14.950Z,1.63
2024-01-17T21:16:48.813Z,1.65
2024-01-17T21:19:22.875Z,1.60
2024-01-17T21:21:56.984Z,1.52
2024-01-17T21:24:32.423Z,1.63
2024-01-17T21:27:06.850Z,0.88
2024-01-17T21:29:42.585Z,1.05
2024-01-17T21:32:16.826Z,1.23
2024-01-17T21:34:50.971Z,1.40
2024-01-17T21:37:24.859Z,1.27
2024-01-17T21:40:06.718Z,1.67
2024-01-17T21:42:40.621Z,1.40
2024-01-17T21:45:14.616Z,1.13
2024-01-17T21:47:48.677Z,1.60
2024-01-17T21:50:22.606Z,1.10
2024-01-17T21:52:56.564Z,1.40
2024-01-17T21:55:31.834Z,1.52
2024-01-17T21:58:07.689Z,1.45
2024-01-17T22:00:41.710Z,1.52
2024-01-17T22:03:15.839Z,1.42
2024-01-17T22:05:49.968Z,1.20
2024-01-17T22:08:24.164Z,1.73
2024-01-17T22:10:59.963Z,1.40
2024-01-17T22:13:34.286Z,1.08
2024-01-17T22:16:08.332Z,1.35
2024-01-17T22:18:42.686Z,1.05
2024-01-17T22:21:16.692Z,1.30
2024-01-17T22:23:50.614Z,0.80
2024-01-17T22:26:25.840Z,1.40
2024-01-17T22:28:59.588Z,1.77
2024-01-17T22:31:33.371Z,1.15
2024-01-17T22:34:07.971Z,1.30
2024-01-17T22:36:42.015Z,1.20
2024-01-17T22:39:16.310Z,1.08
2024-01-17T22:41:51.544Z,1.10
2024-01-17T22:44:26.308Z,1.10
2024-01-17T22:47:00.876Z,0.80
2024-01-17T22:49:34.666Z,1.50
2024-01-17T22:52:10.778Z,0.80
2024-01-17T22:54:44.635Z,1.17
2024-01-17T22:57:19.974Z,1.10
2024-01-17T22:59:53.912Z,1.75
2024-01-17T23:02:28.039Z,0.90
2024-01-17T23:05:02.077Z,0.90
2024-01-17T23:07:35.799Z,1.10
2024-01-17T23:10:10.032Z,1.20
2024-01-17T23:12:45.017Z,1.05
2024-01-17T23:15:18.940Z,0.98
2024-01-17T23:17:52.857Z,1.10
2024-01-17T23:20:26.742Z,0.80
2024-01-17T23:23:00.501Z,1.02
2024-01-17T23:25:34.209Z,0.82
2024-01-17T23:28:09.483Z,0.93
2024-01-17T23:30:44.175Z,3.20
2024-01-17T23:33:18.163Z,4.55
2024-01-17T23:35:52.285Z,1.50
2024-01-17T23:38:26.340Z,1.20
2024-01-17T23:41:00.420Z,1.50
2024-01-17T23:43:35.690Z,1.73
2024-01-17T23:46:09.415Z,3.30
2024-01-17T23:48:43.180Z,2.42
2024-01-17T23:51:16.898Z,1.42
2024-01-17T23:53:50.594Z,1.50
2024-01-17T23:56:24.276Z,1.38
2024-01-17T23:58:59.369Z,1.13
